Time;durP1;ratioP1;P1;durP2;ratioP2;P2;SDS_P1;SDS_P2;PMS_P1;PMS_P2;Temp;Humidity;BMP_temperature;BMP_pressure;BME280_temperature;BME280_humidity;BME280_pressure;Samples;Min_cycle;Max_cycle;Signal;HPM_P1;HPM_P2
2022/12/26 00:00:25;;;;;;;26.75;10.70;;;;;;;12.01;100.00;100643.22;4994433;28;20518;-75
2022/12/26 00:02:52;;;;;;;24.10;10.30;;;;;;;12.02;100.00;100655.91;4991196;28;20899;-73
2022/12/26 00:05:18;;;;;;;24.63;11.20;;;;;;;12.04;100.00;100642.41;4987573;28;20049;-75
2022/12/26 00:07:45;;;;;;;13.40;6.15;;;;;;;11.98;100.00;100649.63;4988558;28;20054;-76
2022/12/26 00:10:12;;;;;;;19.92;9.27;;;;;;;11.98;100.00;100655.16;4995993;28;20049;-73
2022/12/26 00:12:38;;;;;;;22.58;11.23;;;;;;;11.98;100.00;100655.16;4993579;28;20049;-75
2022/12/26 00:15:05;;;;;;;12.90;4.95;;;;;;;11.93;100.00;100658.34;4997410;28;20052;-76
2022/12/26 00:17:31;;;;;;;22.17;9.65;;;;;;;11.96;100.00;100663.09;4988518;28;20172;-74
2022/12/26 00:19:58;;;;;;;25.90;11.63;;;;;;;11.99;100.00;100656.72;4986053;28;20057;-73
2022/12/26 00:22:24;;;;;;;23.08;11.30;;;;;;;12.00;100.00;100652.75;4992911;28;20960;-75
2022/12/26 00:24:51;;;;;;;22.88;11.13;;;;;;;12.00;100.00;100658.28;4995175;28;20050;-75
2022/12/26 00:27:18;;;;;;;21.40;9.60;;;;;;;11.99;100.00;100662.28;4995059;28;20149;-75
2022/12/26 00:29:46;;;;;;;16.95;7.07;;;;;;;11.92;100.00;100660.31;4992123;28;20049;-75
2022/12/26 00:32:13;;;;;;;16.85;6.75;;;;;;;11.94;100.00;100665.47;4993485;28;20053;-75
2022/12/26 00:34:39;;;;;;;19.65;7.40;;;;;;;11.95;100.00;100659.50;4985527;28;21031;-74
2022/12/26 00:37:06;;;;;;;5.13;2.80;;;;;;;11.91;100.00;100661.53;4981396;28;20049;-75
2022/12/26 00:39:32;;;;;;;18.75;7.53;;;;;;;11.93;100.00;100656.38;4991237;28;20046;-72
2022/12/26 00:41:59;;;;;;;17.02;6.90;;;;;;;11.88;100.00;100653.25;4990476;28;20077;-74
2022/12/26 00:44:26;;;;;;;8.15;3.85;;;;;;;11.90;100.00;100653.63;4987964;28;20897;-73
2022/12/26 00:46:52;;;;;;;14.85;5.80;;;;;;;11.89;100.00;100652.84;4987989;28;20509;-72
2022/12/26 00:49:19;;;;;;;4.43;2.20;;;;;;;11.87;100.00;100657.19;4992562;28;20050;-73
2022/12/26 00:51:45;;;;;;;10.55;4.18;;;;;;;11.87;100.00;100665.50;4996474;28;20059;-75
2022/12/26 00:54:12;;;;;;;7.78;3.58;;;;;;;11.89;100.00;100654.81;5000467;28;20752;-73
2022/12/26 00:56:38;;;;;;;11.20;3.63;;;;;;;11.91;100.00;100649.66;4988045;28;20053;-74
2022/12/26 00:59:05;;;;;;;12.38;5.13;;;;;;;11.94;100.00;100657.16;4993074;28;20076;-72
2022/12/26 01:01:32;;;;;;;5.07;2.17;;;;;;;11.86;100.00;100661.19;4993158;28;20060;-72
2022/12/26 01:03:59;;;;;;;11.32;4.70;;;;;;;11.85;100.00;100674.22;4989284;28;20056;-73
2022/12/26 01:06:26;;;;;;;13.95;5.82;;;;;;;11.89;100.00;100669.47;4993774;28;20409;-73
2022/12/26 01:08:52;;;;;;;17.50;6.90;;;;;;;11.86;100.00;100675.03;4999160;28;20064;-72
2022/12/26 01:11:38;;;;;;;17.75;7.03;;;;;;;11.89;100.00;100672.25;5012536;28;20041;-72
2022/12/26 01:14:10;;;;;;;18.02;6.82;;;;;;;11.84;100.00;100680.19;5006145;28;20096;-73
2022/12/26 01:16:37;;;;;;;11.68;5.03;;;;;;;11.85;100.00;100684.56;5015048;28;20144;-73
2022/12/26 01:19:05;;;;;;;21.33;8.05;;;;;;;11.90;100.00;100686.88;5011108;28;20054;-73
2022/12/26 01:21:32;;;;;;;13.13;5.50;;;;;;;11.84;100.00;100685.72;5027163;28;20433;-73
2022/12/26 01:23:59;;;;;;;14.68;6.43;;;;;;;11.90;100.00;100686.88;5013937;28;20534;-73
2022/12/26 01:26:26;;;;;;;15.57;6.80;;;;;;;11.83;100.00;100689.72;5019047;28;20049;-71
2022/12/26 01:28:53;;;;;;;4.72;1.88;;;;;;;11.83;100.00;100686.94;5027286;28;20534;-72
2022/12/26 01:31:20;;;;;;;21.27;8.68;;;;;;;11.87;100.00;100693.25;5026840;28;20049;-74
2022/12/26 01:33:47;;;;;;;22.88;9.23;;;;;;;11.87;100.00;100693.25;5010702;28;20049;-72
2022/12/26 01:36:15;;;;;;;20.85;7.20;;;;;;;11.88;100.00;100692.06;5030350;28;20558;-73
2022/12/26 01:38:42;;;;;;;16.00;6.05;;;;;;;11.82;100.00;100700.03;5023046;28;20137;-73
2022/12/26 01:41:15;;;;;;;12.18;4.78;;;;;;;11.85;100.00;100706.75;5018124;28;20167;-73
2022/12/26 01:43:51;;;;;;;20.50;8.60;;;;;;;11.87;100.00;100707.09;5014715;28;20050;-73
2022/12/26 01:46:21;;;;;;;10.30;3.63;;;;;;;11.83;100.00;100720.19;5023527;28;20535;-73
2022/12/26 01:48:50;;;;;;;23.23;9.52;;;;;;;11.84;100.00;100710.69;5021110;28;20060;-74
2022/12/26 01:51:20;;;;;;;19.90;9.07;;;;;;;11.83;100.00;100703.56;5010404;28;20057;-72
2022/12/26 01:53:51;;;;;;;21.42;8.82;;;;;;;11.80;100.00;100721.81;5008561;28;20064;-72
2022/12/26 01:56:22;;;;;;;15.43;7.28;;;;;;;11.79;100.00;100727.75;5025902;28;20050;-70
2022/12/26 01:59:01;;;;;;;15.73;6.60;;;;;;;11.76;100.00;100726.59;5027087;28;20085;-73
2022/12/26 02:01:30;;;;;;;4.82;2.33;;;;;;;11.74;100.00;100723.41;5011191;28;20132;-73
2022/12/26 02:06:46;;;;;;;17.10;7.40;;;;;;;11.75;100.00;100718.69;5014653;28;20054;-72
2022/12/26 02:09:13;;;;;;;14.88;6.22;;;;;;;11.70;100.00;100702.47;5018359;28;20057;-73
2022/12/26 02:11:46;;;;;;;2.63;1.65;;;;;;;11.59;100.00;100712.78;5025625;28;20053;-75
2022/12/26 02:14:13;;;;;;;8.18;3.35;;;;;;;11.61;100.00;100715.97;5018437;28;20160;-72
2022/12/26 02:16:40;;;;;;;7.57;2.75;;;;;;;11.57;100.00;100717.94;5022850;28;20054;-73
2022/12/26 02:19:25;;;;;;;7.90;3.25;;;;;;;11.56;100.00;100728.25;5016447;28;20073;-74
2022/12/26 02:22:01;;;;;;;4.32;2.30;;;;;;;11.54;100.00;100727.84;5008028;28;20069;-73
2022/12/26 02:24:30;;;;;;;;;;;;;;;11.53;100.00;100734.59;5019381;28;20775;-72
2022/12/26 02:27:09;;;;;;;15.55;3.47;;;;;;;11.52;100.00;100735.00;5029871;28;19932;-74
2022/12/26 02:30:06;;;;;;;6.20;2.83;;;;;;;11.45;100.00;100719.22;5025284;28;20054;-73
2022/12/26 02:33:10;;;;;;;5.55;1.73;;;;;;;11.41;100.00;100725.94;5021634;28;20054;-72
2022/12/26 02:36:01;;;;;;;6.32;1.75;;;;;;;11.39;100.00;100726.34;5015998;28;20060;-76
2022/12/26 02:38:50;;;;;;;6.93;2.70;;;;;;;11.37;100.00;100725.94;5029603;28;20069;-72
2022/12/26 02:41:27;;;;;;;7.32;3.05;;;;;;;11.46;100.00;100725.50;5030024;28;20041;-72
2022/12/26 02:47:46;;;;;;;3.88;1.85;;;;;;;11.36;100.00;100734.66;5017178;28;20112;-72
2022/12/26 03:14:31;;;;;;;12.00;4.18;;;;;;;11.39;100.00;100748.50;5012722;28;20041;-73
2022/12/26 03:17:19;;;;;;;4.20;2.35;;;;;;;11.37;100.00;100752.88;5013534;28;20049;-72
2022/12/26 03:20:01;;;;;;;6.63;2.28;;;;;;;11.29;100.00;100759.63;5025270;28;20518;-73
2022/12/26 03:22:42;;;;;;;12.75;5.25;;;;;;;11.43;100.00;100757.59;5009066;28;20049;-74
2022/12/26 03:28:14;;;;;;;13.40;4.15;;;;;;;11.38;100.00;100760.00;5016725;28;20054;-73
2022/12/26 03:30:50;;;;;;;12.23;5.30;;;;;;;11.37;100.00;100756.41;5024826;28;20068;-74
2022/12/26 03:36:19;;;;;;;14.77;5.90;;;;;;;11.37;100.00;100755.66;5019907;28;20057;-71
2022/12/26 03:39:12;;;;;;;13.38;5.00;;;;;;;11.33;100.00;100763.97;5028342;28;20053;-74
2022/12/26 04:20:12;;;;;;;13.60;5.68;;;;;;;11.14;100.00;100769.16;4997132;28;20058;-71
2022/12/26 04:45:52;;;;;;;15.57;6.68;;;;;;;11.09;100.00;100791.72;5021848;28;20053;-72
2022/12/26 04:51:03;;;;;;;9.57;3.58;;;;;;;11.06;100.00;100786.97;5022628;28;20064;-73
2022/12/26 04:53:30;;;;;;;8.40;3.85;;;;;;;11.06;100.00;100790.53;5016752;28;20046;-73
2022/12/26 04:55:56;;;;;;;6.68;2.97;;;;;;;11.10;100.00;100796.84;5024905;28;20063;-73
2022/12/26 04:58:25;;;;;;;11.75;5.18;;;;;;;11.12;100.00;100794.50;5014433;28;20054;-73
2022/12/26 05:09:32;;;;;;;15.05;5.75;;;;;;;11.12;100.00;100796.47;5022811;28;20053;-73
2022/12/26 05:11:55;;;;;;;7.97;3.78;;;;;;;11.05;100.00;100780.66;5020382;28;20049;-73
2022/12/26 05:14:22;;;;;;;13.77;5.55;;;;;;;11.08;100.00;100785.41;5018260;28;20508;-72
2022/12/26 05:30:45;;;;;;;7.47;3.95;;;;;;;10.99;100.00;100792.53;5021639;28;20045;-72
2022/12/26 05:35:57;;;;;;;4.47;2.33;;;;;;;10.97;100.00;100798.47;5024382;28;20080;-73
2022/12/26 05:38:24;;;;;;;6.47;2.80;;;;;;;10.97;100.00;100811.53;5017348;28;20046;-74
2022/12/26 05:40:50;;;;;;;11.35;4.93;;;;;;;10.98;100.00;100813.09;5028059;28;20064;-74
2022/12/26 05:43:18;;;;;;;6.05;2.92;;;;;;;10.94;100.00;100812.31;5019136;28;20068;-72
2022/12/26 05:45:45;;;;;;;11.77;4.60;;;;;;;10.99;100.00;100800.84;5018431;28;20435;-75
2022/12/26 05:48:11;;;;;;;11.45;3.08;;;;;;;10.96;100.00;100809.94;5022741;28;20579;-74
2022/12/26 05:50:38;;;;;;;8.60;3.83;;;;;;;10.91;100.00;100805.59;5030578;28;20049;-75
2022/12/26 05:53:04;;;;;;;7.72;3.28;;;;;;;10.93;100.00;100807.97;5011956;28;20049;-74
2022/12/26 05:55:31;;;;;;;13.75;5.25;;;;;;;10.92;100.00;100818.25;5026768;28;20144;-74
2022/12/26 05:58:01;;;;;;;17.38;7.65;;;;;;;10.98;100.00;100810.34;5013012;28;20068;-72
2022/12/26 06:00:29;;;;;;;15.18;6.45;;;;;;;10.96;100.00;100810.72;5018144;28;20049;-73
2022/12/26 06:02:57;;;;;;;8.88;3.80;;;;;;;10.95;100.00;100822.19;5023150;28;20050;-73
2022/12/26 06:05:24;;;;;;;9.48;3.03;;;;;;;10.88;100.00;100814.69;5015479;28;20053;-74
2022/12/26 06:07:51;;;;;;;7.47;3.13;;;;;;;10.96;100.00;100809.94;5022433;28;20042;-73
2022/12/26 06:10:17;;;;;;;6.15;2.97;;;;;;;10.94;100.00;100812.31;5025593;28;20053;-72
2022/12/26 06:12:44;;;;;;;11.32;3.72;;;;;;;10.92;100.00;100804.41;5021195;28;20716;-71
2022/12/26 06:15:11;;;;;;;16.77;7.15;;;;;;;10.99;100.00;100790.56;5025798;28;20045;-75
2022/12/26 06:17:38;;;;;;;16.15;6.72;;;;;;;10.99;100.00;100784.22;5014303;28;20068;-73
2022/12/26 06:20:05;;;;;;;12.50;5.03;;;;;;;10.98;100.00;100782.66;5016617;28;20056;-73
2022/12/26 06:22:32;;;;;;;14.00;4.50;;;;;;;10.95;100.00;100786.22;5023586;28;20071;-73
2022/12/26 06:24:58;;;;;;;10.23;3.67;;;;;;;10.91;100.00;100785.44;5024283;28;20064;-71
2022/12/26 06:27:25;;;;;;;13.82;5.05;;;;;;;10.88;100.00;100773.19;5014522;28;20165;-72
2022/12/26 06:29:51;;;;;;;14.27;5.10;;;;;;;10.85;100.00;100771.19;5009962;28;20050;-73
2022/12/26 06:32:18;;;;;;;8.63;3.33;;;;;;;10.88;100.00;100766.84;5024336;28;20051;-74
2022/12/26 06:34:46;;;;;;;10.40;4.30;;;;;;;10.88;100.00;100777.91;5025307;28;20049;-73
2022/12/26 06:37:12;;;;;;;8.48;3.33;;;;;;;10.84;100.00;100780.72;5017456;28;20060;-74
2022/12/26 06:39:39;;;;;;;12.40;3.17;;;;;;;10.84;100.00;100774.38;5022308;28;20053;-72
2022/12/26 06:42:05;;;;;;;10.50;4.32;;;;;;;10.89;100.00;100777.53;5012408;28;20274;-73
2022/12/26 06:44:32;;;;;;;12.35;4.75;;;;;;;10.87;100.00;100782.66;5022351;28;20049;-74
2022/12/26 06:46:58;;;;;;;10.05;3.95;;;;;;;10.91;100.00;100785.44;5017927;28;20091;-73
2022/12/26 06:49:25;;;;;;;12.75;4.10;;;;;;;10.87;100.00;100790.19;5024332;28;20073;-73
2022/12/26 06:51:58;;;;;;;8.02;2.92;;;;;;;10.87;100.00;100804.78;5010129;28;20069;-73
2022/12/26 06:54:24;;;;;;;13.13;5.07;;;;;;;10.89;100.00;100794.13;5022982;28;20049;-74
2022/12/26 06:56:51;;;;;;;10.63;4.60;;;;;;;10.86;100.00;100810.75;5028491;28;20052;-72
2022/12/26 06:59:17;;;;;;;8.05;3.38;;;;;;;10.89;100.00;100815.47;5017910;28;20057;-72
2022/12/26 07:01:44;;;;;;;5.35;2.78;;;;;;;10.92;100.00;100815.47;5009478;28;20049;-75
2022/12/26 07:04:12;;;;;;;3.58;2.30;;;;;;;10.97;100.00;100839.97;5007965;28;20054;-75
2022/12/26 07:06:38;;;;;;;8.23;3.42;;;;;;;10.98;100.00;100830.50;5022300;28;20056;-74
2022/12/26 07:09:09;;;;;;;14.80;6.63;;;;;;;11.05;100.00;100826.94;5007026;28;20072;-72
2022/12/26 07:11:37;;;;;;;2.13;1.42;;;;;;;11.00;100.00;100827.34;5018079;28;20759;-71
2022/12/26 07:14:04;;;;;;;11.30;4.38;;;;;;;11.01;100.00;100823.38;5017696;28;20050;-72
2022/12/26 07:16:34;;;;;;;5.55;2.75;;;;;;;10.97;100.00;100828.13;5029276;28;20152;-74
2022/12/26 07:19:00;;;;;;;15.77;5.75;;;;;;;10.98;100.00;100836.06;5009493;28;20124;-74
2022/12/26 07:21:27;;;;;;;9.95;3.55;;;;;;;10.98;100.00;100851.84;5008956;28;20050;-72
2022/12/26 07:23:55;;;;;;;7.95;3.72;;;;;;;11.03;100.00;100854.25;5018141;28;20045;-74
2022/12/26 07:26:23;;;;;;;10.88;4.28;;;;;;;11.00;100.00;100866.88;5016771;28;20060;-73
2022/12/26 07:28:54;;;;;;;13.48;6.07;;;;;;;11.08;100.00;100856.59;5009387;28;20049;-73
2022/12/26 07:31:22;;;;;;;16.92;6.90;;;;;;;11.13;100.00;100854.22;5015816;28;20534;-72
2022/12/26 07:33:50;;;;;;;12.93;5.47;;;;;;;11.13;100.00;100856.22;5022760;28;20053;-72
2022/12/26 07:36:17;;;;;;;5.68;2.80;;;;;;;11.12;100.00;100858.19;5028439;28;20144;-73
2022/12/26 07:38:44;;;;;;;8.20;2.78;;;;;;;11.10;100.00;100860.53;5021062;28;20137;-74
2022/12/26 07:43:57;;;;;;;16.33;6.25;;;;;;;11.22;100.00;100860.16;5003002;28;20050;-73
2022/12/26 07:46:23;;;;;;;8.57;3.28;;;;;;;11.14;100.00;100858.56;5017677;28;20045;-74
2022/12/26 07:48:50;;;;;;;8.30;3.30;;;;;;;11.15;100.00;100839.97;5027949;28;20084;-74
2022/12/26 07:51:16;;;;;;;13.27;5.82;;;;;;;11.21;100.00;100855.81;5013095;28;20047;-72
2022/12/26 07:53:43;;;;;;;6.88;2.50;;;;;;;11.19;100.00;100865.69;5024839;28;20530;-73
2022/12/26 07:56:09;;;;;;;9.85;3.28;;;;;;;11.22;100.00;100875.97;5018413;28;20045;-74
2022/12/26 07:58:36;;;;;;;7.35;2.80;;;;;;;11.29;100.00;100862.09;5017132;28;20049;-73
2022/12/26 08:01:03;;;;;;;14.65;4.80;;;;;;;11.33;100.00;100874.75;5012324;28;20048;-74
2022/12/26 08:03:30;;;;;;;5.68;2.75;;;;;;;11.26;100.00;100871.22;5005665;28;20172;-73
2022/12/26 08:05:57;;;;;;;8.20;3.33;;;;;;;11.31;100.00;100887.44;5014798;28;20049;-74
2022/12/26 08:08:24;;;;;;;6.13;3.08;;;;;;;11.30;100.00;100877.56;5021484;28;20048;-74
2022/12/26 08:11:01;;;;;;;10.35;4.15;;;;;;;11.32;100.00;100867.66;5028355;28;20049;-74
2022/12/26 08:13:30;;;;;;;13.18;5.07;;;;;;;11.35;100.00;100885.44;5009967;28;20066;-75
2022/12/26 08:15:57;;;;;;;9.95;3.78;;;;;;;11.32;100.00;100886.25;5015591;28;20057;-75
2022/12/26 08:18:24;;;;;;;12.32;4.32;;;;;;;11.38;100.00;100898.50;5013552;28;20051;-75
2022/12/26 08:20:51;;;;;;;15.98;6.43;;;;;;;11.50;100.00;100889.75;5007196;28;20050;-76
2022/12/26 08:23:18;;;;;;;7.32;2.95;;;;;;;11.52;100.00;100898.47;5004617;28;20057;-74
2022/12/26 08:25:44;;;;;;;7.75;3.70;;;;;;;11.50;100.00;100920.25;5013711;28;20050;-76
2022/12/26 08:28:11;;;;;;;4.90;1.95;;;;;;;11.54;100.00;100902.44;5014463;28;20062;-73
2022/12/26 08:30:40;;;;;;;9.18;3.35;;;;;;;11.56;100.00;100902.81;5007797;28;20132;-73
2022/12/26 08:33:08;;;;;;;8.88;2.70;;;;;;;11.54;100.00;100885.03;5004899;28;20050;-73
2022/12/26 08:35:35;;;;;;;3.22;1.92;;;;;;;11.60;100.00;100880.63;5008213;28;20049;-73
2022/12/26 08:38:02;;;;;;;7.10;3.03;;;;;;;11.56;100.00;100886.19;5024313;28;20076;-73
2022/12/26 08:40:29;;;;;;;5.00;2.15;;;;;;;11.60;100.00;100888.94;5013666;28;20435;-73
2022/12/26 08:43:09;;;;;;;10.10;3.58;;;;;;;11.70;100.00;100888.16;5008163;28;20495;-74
2022/12/26 08:46:03;;;;;;;9.20;3.00;;;;;;;11.65;100.00;100889.34;5005083;28;20053;-73
2022/12/26 08:48:31;;;;;;;6.57;2.70;;;;;;;11.61;100.00;100885.81;5009179;28;20434;-73
2022/12/26 08:51:04;;;;;;;3.00;1.60;;;;;;;11.62;100.00;100892.97;5006934;28;20054;-75
2022/12/26 08:53:34;;;;;;;4.25;1.65;;;;;;;11.63;100.00;100890.94;5008432;28;20054;-73
2022/12/26 08:56:03;;;;;;;3.47;2.10;;;;;;;11.63;100.00;100896.50;5012826;28;20046;-73
2022/12/26 08:58:31;;;;;;;7.40;2.80;;;;;;;11.68;100.00;100904.41;5023204;28;20546;-74
2022/12/26 09:01:06;;;;;;;10.48;3.00;;;;;;;11.59;100.00;100907.56;5026144;28;20081;-73
2022/12/26 09:03:33;;;;;;;5.68;2.05;;;;;;;11.68;100.00;100909.97;5008068;28;20426;-75
2022/12/26 09:06:00;;;;;;;6.85;2.78;;;;;;;11.69;100.00;100920.66;5007336;28;20562;-74
2022/12/26 09:08:33;;;;;;;2.92;1.40;;;;;;;11.55;100.00;100915.13;4998699;28;20053;-74
2022/12/26 09:11:06;;;;;;;3.50;1.63;;;;;;;11.61;100.00;100923.81;5007095;28;20655;-74
2022/12/26 09:13:34;;;;;;;7.55;2.97;;;;;;;11.70;100.00;100915.88;5005987;28;20508;-76
2022/12/26 09:16:09;;;;;;;4.68;2.97;;;;;;;11.59;100.00;100909.53;5016426;28;20041;-75
2022/12/26 09:18:36;;;;;;;5.35;1.98;;;;;;;11.66;100.00;100934.50;5021813;28;20048;-75
2022/12/26 09:21:04;;;;;;;7.32;2.38;;;;;;;11.67;100.00;100922.22;5021851;28;20053;-74
2022/12/26 09:23:31;;;;;;;5.93;2.42;;;;;;;11.69;100.00;100930.94;5019814;28;20072;-74
2022/12/26 09:26:05;;;;;;;6.90;2.53;;;;;;;11.60;100.00;100933.28;5013603;28;20065;-74
2022/12/26 09:28:32;;;;;;;6.88;2.58;;;;;;;11.66;100.00;100938.06;5010933;28;20191;-73
2022/12/26 09:31:01;;;;;;;2.35;1.42;;;;;;;11.72;100.00;100930.13;5008221;28;20046;-74
2022/12/26 09:33:29;;;;;;;5.03;2.72;;;;;;;11.65;100.00;100919.84;5011237;28;20084;-74
2022/12/26 09:35:56;;;;;;;1.52;1.08;;;;;;;11.70;100.00;100913.09;5020353;28;20046;-76
2022/12/26 09:38:30;;;;;;;4.28;2.08;;;;;;;11.68;100.00;100924.59;5025480;28;20077;-76
2022/12/26 09:41:02;;;;;;;4.93;1.83;;;;;;;11.73;100.00;100917.84;5012876;28;20141;-73
2022/12/26 09:43:50;;;;;;;6.30;2.45;;;;;;;11.70;100.00;100944.41;5014278;28;20048;-74
2022/12/26 09:46:51;;;;;;;5.50;2.03;;;;;;;11.73;100.00;100963.00;5000136;28;20142;-74
2022/12/26 09:49:23;;;;;;;3.35;1.80;;;;;;;11.84;100.00;100932.47;4999981;28;20163;-74
2022/12/26 09:51:59;;;;;;;5.68;1.42;;;;;;;11.86;100.00;100944.75;5006332;28;20559;-74
2022/12/26 09:55:01;;;;;;;7.97;2.15;;;;;;;11.95;100.00;100938.78;5013779;28;20050;-75
2022/12/26 09:57:40;;;;;;;5.20;2.10;;;;;;;11.93;100.00;100949.47;5022696;28;20052;-72
2022/12/26 10:00:16;;;;;;;5.60;2.47;;;;;;;12.04;100.00;100950.22;5028034;28;20511;-75
2022/12/26 10:02:52;;;;;;;3.30;1.88;;;;;;;11.97;100.00;100958.59;5016093;28;20050;-76
2022/12/26 10:05:21;;;;;;;8.90;2.10;;;;;;;11.90;100.00;100961.38;5006512;28;20062;-75
2022/12/26 10:08:00;;;;;;;7.20;2.35;;;;;;;12.00;100.00;100957.78;5010957;28;20449;-74
2022/12/26 10:10:45;;;;;;;2.83;1.35;;;;;;;11.96;100.00;100968.91;5009893;28;20041;-74
2022/12/26 10:13:43;;;;;;;5.20;1.45;;;;;;;11.90;100.00;100953.84;5025949;28;20035;-75
2022/12/26 10:16:18;;;;;;;3.63;1.65;;;;;;;12.00;100.00;100955.00;5016680;28;20056;-72
2022/12/26 10:18:55;;;;;;;3.20;1.60;;;;;;;11.95;100.00;100964.53;5019211;28;20053;-73
2022/12/26 10:21:57;;;;;;;2.28;1.30;;;;;;;11.92;100.00;100975.63;5011734;28;20061;-74
2022/12/26 10:24:29;;;;;;;3.83;1.60;;;;;;;11.90;100.00;100969.69;4960919;28;20078;-73
2022/12/26 10:27:04;;;;;;;4.72;2.53;;;;;;;11.86;100.00;100966.16;4997282;28;20038;-73
2022/12/26 10:29:37;;;;;;;6.40;1.98;;;;;;;11.91;100.00;100957.44;5012711;28;20056;-73
2022/12/26 10:32:04;;;;;;;4.40;2.00;;;;;;;11.92;100.00;100947.91;5026143;28;20455;-75
2022/12/26 10:34:58;;;;;;;4.00;1.60;;;;;;;11.98;100.00;100943.53;5024434;28;20068;-73
2022/12/26 10:37:34;;;;;;;4.00;2.13;;;;;;;12.09;100.00;100939.50;5011827;28;20049;-74
2022/12/26 10:40:19;;;;;;;1.58;0.75;;;;;;;12.09;100.00;100941.53;5017880;28;20578;-74
2022/12/26 10:43:25;;;;;;;5.35;2.20;;;;;;;12.10;100.00;100941.13;5018990;28;20045;-74
2022/12/26 10:45:57;;;;;;;6.35;1.25;;;;;;;12.07;100.00;100941.13;5025555;28;20050;-73
2022/12/26 10:48:27;;;;;;;10.35;2.30;;;;;;;11.94;100.00;100946.31;5013215;28;20056;-74
2022/12/26 10:50:54;;;;;;;8.20;2.08;;;;;;;12.09;100.00;100936.75;5015675;28;20053;-73
2022/12/26 10:53:21;;;;;;;4.40;2.10;;;;;;;12.20;100.00;100939.50;5016077;28;20581;-75
2022/12/26 10:55:48;;;;;;;6.32;2.03;;;;;;;12.18;100.00;100931.56;5017785;28;20432;-74
2022/12/26 10:58:20;;;;;;;5.53;1.77;;;;;;;12.14;100.00;100935.53;5021810;28;20037;-75
2022/12/26 11:00:46;;;;;;;1.85;1.40;;;;;;;12.07;100.00;100938.34;5008839;28;20046;-75
2022/12/26 11:03:16;;;;;;;5.20;1.83;;;;;;;12.14;100.00;100930.78;5000763;28;20052;-74
2022/12/26 11:05:49;;;;;;;4.45;1.63;;;;;;;12.07;100.00;100932.78;5003873;28;20057;-75
2022/12/26 11:08:38;;;;;;;3.53;1.13;;;;;;;11.98;100.00;100918.59;5001129;28;20076;-74
2022/12/26 11:11:18;;;;;;;5.93;1.27;;;;;;;12.01;100.00;100932.44;5008502;28;20104;-76
2022/12/26 11:13:52;;;;;;;0.80;0.80;;;;;;;12.03;100.00;100941.16;5005802;28;20045;-74
2022/12/26 11:16:39;;;;;;;3.63;1.50;;;;;;;12.02;100.00;100941.53;5010541;28;20128;-76
2022/12/26 11:19:05;;;;;;;2.28;1.38;;;;;;;12.03;100.00;100941.16;5018725;28;20048;-75
2022/12/26 11:21:32;;;;;;;5.95;1.55;;;;;;;12.05;100.00;100951.84;5019713;28;20068;-74
2022/12/26 11:24:08;;;;;;;3.50;1.20;;;;;;;12.07;100.00;100941.91;5007544;28;20050;-76
2022/12/26 11:26:36;;;;;;;5.72;1.20;;;;;;;12.10;100.00;100940.31;5014968;28;20922;-75
2022/12/26 11:29:11;;;;;;;4.90;1.55;;;;;;;12.15;100.00;100940.69;5010916;28;20053;-75
2022/12/26 11:31:40;;;;;;;6.18;1.98;;;;;;;12.21;100.00;100947.41;5014488;28;20060;-73
2022/12/26 11:34:18;;;;;;;5.88;2.00;;;;;;;12.26;100.00;100941.44;5018667;28;20148;-75
2022/12/26 11:36:47;;;;;;;3.28;1.25;;;;;;;12.21;100.00;100941.06;5009673;28;20499;-75
2022/12/26 11:39:24;;;;;;;8.73;2.05;;;;;;;12.08;100.00;100943.50;5010506;28;20045;-74
2022/12/26 11:41:51;;;;;;;2.88;1.30;;;;;;;12.12;100.00;100937.94;5008186;28;20500;-73
2022/12/26 11:44:26;;;;;;;5.32;1.80;;;;;;;12.11;100.00;100939.13;5009296;28;20073;-74
2022/12/26 11:47:09;;;;;;;3.50;1.60;;;;;;;12.08;100.00;100931.63;5017622;28;20064;-74
2022/12/26 11:50:17;;;;;;;5.90;1.23;;;;;;;12.18;100.00;100937.13;5019543;28;20502;-74
2022/12/26 11:53:04;;;;;;;6.03;1.70;;;;;;;12.07;100.00;100941.13;5011256;28;20072;-74
2022/12/26 11:55:33;;;;;;;2.60;0.93;;;;;;;12.25;100.00;100939.09;5003393;28;20049;-75
2022/12/26 11:58:14;;;;;;;3.97;1.17;;;;;;;12.19;100.00;100937.91;5010935;28;20069;-75
2022/12/26 12:00:42;;;;;;;4.53;1.80;;;;;;;12.19;100.00;100932.38;5015941;28;20053;-73
2022/12/26 12:03:16;;;;;;;1.88;1.00;;;;;;;12.21;100.00;100947.41;5018188;28;20045;-74
2022/12/26 12:05:51;;;;;;;3.38;1.15;;;;;;;12.28;100.00;100946.56;5021542;28;20137;-73
2022/12/26 12:08:39;;;;;;;2.90;1.50;;;;;;;12.52;100.00;100945.69;5001303;28;20053;-74
2022/12/26 12:11:20;;;;;;;4.88;1.60;;;;;;;12.95;100.00;100936.66;5012263;28;20054;-75
2022/12/26 12:13:53;;;;;;;0.77;0.65;;;;;;;12.83;100.00;100939.91;5018615;28;20050;-75
2022/12/26 12:16:40;;;;;;;6.07;1.90;;;;;;;12.60;100.00;100970.22;5008503;28;20046;-75
2022/12/26 12:19:29;;;;;;;5.05;1.45;;;;;;;12.69;100.00;100945.56;5010323;28;20056;-75
2022/12/26 12:22:19;;;;;;;1.98;1.00;;;;;;;13.00;100.00;100941.03;5009263;28;20042;-77
2022/12/26 12:24:52;;;;;;;1.63;0.95;;;;;;;12.95;100.00;100942.22;5007206;28;20048;-75
2022/12/26 12:27:37;;;;;;;3.50;1.40;;;;;;;13.69;100.00;100922.16;5009902;28;20045;-75
2022/12/26 12:30:15;;;;;;;6.30;1.67;;;;;;;13.06;100.00;100944.94;5014162;28;20054;-74
2022/12/26 12:33:14;;;;;;;4.00;1.45;;;;;;;12.72;100.00;100947.53;5009832;28;20045;-74
2022/12/26 12:35:47;;;;;;;4.25;1.25;;;;;;;12.61;100.00;100959.91;4996413;28;20053;-74
2022/12/26 12:38:35;;;;;;;2.05;1.27;;;;;;;12.39;100.00;100986.19;5016649;28;20053;-75
2022/12/26 12:41:20;;;;;;;3.22;1.38;;;;;;;11.90;100.00;100986.31;5012451;28;20042;-74
2022/12/26 12:44:06;;;;;;;3.25;1.17;;;;;;;11.62;100.00;100986.38;5006444;28;20052;-74
2022/12/26 12:46:56;;;;;;;12.85;2.05;;;;;;;11.40;100.00;100993.09;5007094;28;20054;-74
2022/12/26 12:49:40;;;;;;;3.75;1.27;;;;;;;10.87;100.00;100995.03;5009197;28;20045;-74
2022/12/26 12:52:37;;;;;;;2.70;1.70;;;;;;;10.86;100.00;101002.53;5010492;28;20054;-74
2022/12/26 12:55:09;;;;;;;7.07;2.78;;;;;;;10.68;100.00;100990.63;5001590;28;20050;-73
2022/12/26 12:58:08;;;;;;;6.85;2.67;;;;;;;10.52;100.00;101003.22;5004213;28;20057;-73
2022/12/26 13:01:13;;;;;;;8.73;3.53;;;;;;;10.53;100.00;101003.63;5010423;28;20057;-74
2022/12/26 13:03:53;;;;;;;6.32;2.97;;;;;;;10.43;100.00;101020.97;5000983;28;20046;-74
2022/12/26 13:06:28;;;;;;;6.63;2.85;;;;;;;10.28;100.00;101024.06;5004727;28;20046;-75
2022/12/26 13:09:10;;;;;;;8.90;1.48;;;;;;;10.29;100.00;101022.88;5012318;28;20356;-74
2022/12/26 13:11:43;;;;;;;14.00;3.50;;;;;;;10.35;100.00;101035.16;4999656;28;20800;-74
2022/12/26 13:14:19;;;;;;;6.78;1.75;;;;;;;10.17;100.00;101029.53;5008433;28;20148;-72
2022/12/26 13:16:52;;;;;;;8.48;2.67;;;;;;;10.22;100.00;101026.41;5008060;28;20060;-72
2022/12/26 13:19:25;;;;;;;11.98;2.80;;;;;;;10.17;100.00;101034.28;5018553;28;20496;-72
2022/12/26 13:21:55;;;;;;;8.98;2.72;;;;;;;10.15;100.00;101031.09;5012323;28;20060;-73
2022/12/26 13:24:32;;;;;;;11.27;2.97;;;;;;;10.11;100.00;101036.63;5012526;28;20054;-74
2022/12/26 13:27:15;;;;;;;10.20;3.85;;;;;;;10.14;100.00;101037.81;5004179;28;20068;-72
2022/12/26 13:29:46;;;;;;;10.52;3.88;;;;;;;10.12;100.00;101037.41;5012608;28;20064;-75
2022/12/26 13:32:28;;;;;;;8.88;4.40;;;;;;;10.08;100.00;101042.91;4989055;28;20051;-75
2022/12/26 13:34:57;;;;;;;12.65;4.47;;;;;;;10.11;100.00;101060.69;4983607;28;20045;-73
2022/12/26 13:37:39;;;;;;;7.07;3.22;;;;;;;10.08;100.00;101053.97;4988233;28;20054;-74
2022/12/26 13:40:11;;;;;;;15.93;4.18;;;;;;;10.05;100.00;101059.44;4994049;28;20052;-73
2022/12/26 13:45:46;;;;;;;10.70;3.58;;;;;;;10.15;100.00;101059.56;4978995;28;20049;-75
2022/12/26 13:48:15;;;;;;;11.65;3.85;;;;;;;10.22;100.00;101058.78;4976533;28;20050;-75
2022/12/26 13:50:56;;;;;;;7.88;2.60;;;;;;;10.19;100.00;101073.38;4985706;28;20050;-73